Adriano Conti

Olheiro - Atalanta
3 Abr 2027
Sábado
Processo

Personalidade

Adaptabilidade (14) Ambição (18) Controvérsia (15) Lealdade (20) Pressão (14) Profissionalismo (17) Espírito Esportivo (20) Temperamento (14)

Perfil

Estilo de Treinamento Democrático
Licença Nacional A
Determinação 5
Gestão de Pessoas 12
Motivação 9
Disciplina 12
Satisfação no Trabalho
50%
Fadiga
0%
Função Olheiro
Salário 33.6K p/s
Contrato 14.03.2029

Desempenho

Comportamento Normal
Eficácia do Treinamento
24%
Desenvolvimento do Jogador
55%
Prevenção de Lesões
65%
Implementação Tática
65%

Eventos Recentes

Avaliou um jogador agora
Participou de uma reunião de recrutamento agora
Recomendou um alvo de transferência agora
Avaliou um jogador agora
Avaliou um jogador agora
Avaliou um jogador 7d atrás
Observou uma partida 7d atrás
Avaliou um jogador 7d atrás

Monitorando agora

115
Jogador Clube Status Habilidade Confiança Observado Última observação Último voto
Diogo Sousa RC Strasbourg Ativo 108 / 122 40% 2 02.04.2027 -
Rhys Chadwick Peterborough United Ativo 98 / 107 40% 1 02.04.2027 -
Harrison Armstrong Everton Ativo 132 / 129 40% 1 02.04.2027 -
Axel Tape Bayer Leverkusen Ativo 129 / 123 40% 3 01.04.2027 -
Mattia Mannini Juve Stabia Ativo 101 / 118 40% 1 01.04.2027 -
Kyrylo Dihtiar Metalist Ativo 98 / 111 40% 1 01.04.2027 -
Dmitry Pestryakov Dinamo Moscow Ativo 101 / 119 40% 2 31.03.2027 -
Juan David Arizala Udinese Ativo 114 / 136 40% 1 31.03.2027 -
Jobe Bellingham RB Leipzig Ativo 135 / 138 40% 1 31.03.2027 -
Jaygo van Ommeren Utrecht Ativo 109 / 121 40% 1 30.03.2027 -
Toni Tamarit Alverca Ativo 110 / 116 40% 1 30.03.2027 -
Alpha Touré FC Metz Ativo 110 / 111 40% 1 29.03.2027 -
Itumeleng Zungu Free State Stars Ativo 115 / 113 40% 1 29.03.2027 -
Valentin Atangana Juventus Ativo 129 / 130 40% 1 29.03.2027 -
Ollie Scarles West Ham United Ativo 122 / 138 40% 4 28.03.2027 -
Daniel Banjaqui Benfica Ativo 116 / 117 40% 1 28.03.2027 -
Davinchi Getafe Ativo 110 / 117 40% 1 28.03.2027 -
Davide Bartesaghi AC Milan Ativo 122 / 132 40% 2 26.03.2027 -
Adam Aznou Everton Ativo 120 / 128 40% 1 26.03.2027 -
Vanja Dragojević Partizan Ativo 100 / 124 40% 1 26.03.2027 -
Chris Rigg Sunderland Ativo 124 / 132 40% 6 25.03.2027 -
Leonardo Mendicino Bari Ativo 108 / 113 40% 1 25.03.2027 -
Ezra Mayers West Ham United Ativo 119 / 126 40% 1 24.03.2027 -
Alexis Vossah Toulouse FC Ativo 117 / 124 40% 1 24.03.2027 -
Tiago Freitas Benfica Ativo 106 / 117 40% 2 22.03.2027 -
Mateus Mané Manchester United Ativo 125 / 146 40% 2 22.03.2027 -
Matija Frigan Parma Ativo 114 / 114 40% 3 22.03.2027 -
Bernardo Lima Porto Ativo 101 / 112 40% 1 22.03.2027 -
Eivind Helland Bologna Ativo 134 / 130 40% 1 22.03.2027 -
Siyabonga Mabena Mamelodi Sundowns Ativo 110 / 118 40% 1 22.03.2027 -
Sabil Hansen Randers Ativo 118 / 111 40% 1 20.03.2027 -
Mattia Puzone Siracusa Ativo 97 / 103 40% 1 20.03.2027 -
Moncef Zekri Sporting CP Ativo 98 / 104 40% 1 20.03.2027 -
Jaydee Canvot Crystal Palace Ativo 129 / 141 40% 1 18.03.2027 -
Hlompho Mokoena SuperSport United Ativo 93 / 111 40% 1 18.03.2027 -
Lennon Miller Udinese Ativo 125 / 129 40% 1 17.03.2027 -
Pejman Dejagah Padideh Ativo 99 / 98 40% 1 17.03.2027 -
Lucas Jetten Cambuur Ativo 107 / 124 40% 1 17.03.2027 -
Bohdan Budko AZ Ativo 106 / 120 40% 1 16.03.2027 -
Jofre Torrents Ajax Ativo 113 / 135 40% 1 16.03.2027 -
Maksim Samorodov Akhmat Grozny Ativo 113 / 124 40% 2 14.03.2027 -
Henrik Meister Fiorentina Ativo 130 / 126 40% 3 14.03.2027 -
Nicolas Verkooijen PSV Ativo 109 / 114 40% 1 14.03.2027 -
Exequiel Zeballos Boca Juniors Ativo 135 / 133 40% 2 13.03.2027 -
Jhon Aponza Boca Juniors Ativo 96 / 112 40% 1 13.03.2027 -
Sayed Abu Farchi Maccabi Tel Aviv Ativo 117 / 115 40% 1 13.03.2027 -
Sindre Walle Egeli Tottenham Ativo 122 / 141 40% 1 12.03.2027 -
Thomas Waddingham Portsmouth Ativo 104 / 119 40% 1 09.03.2027 -
Giovane Napoli Ativo 131 / 141 40% 1 09.03.2027 -
Agustín Ruberto River Plate Ativo 120 / 112 40% 1 06.03.2027 -
Felipe Augusto Zenit Ativo 144 / 135 40% 1 06.03.2027 -
Matheus Alves Lokomotiv Moscow Ativo 136 / 144 40% 1 05.03.2027 -
Ryan Kavuma-McQueen Chelsea Ativo 97 / 121 40% 1 05.03.2027 -
Igor Tyjon Blackburn Rovers Ativo 97 / 115 40% 1 05.03.2027 -
Giorgi Kvernadze Frosinone Ativo 123 / 123 40% 3 04.03.2027 -
Alan Velasco Boca Juniors Ativo 123 / 129 40% 1 04.03.2027 -
David Kalokoh Ajax Ativo 115 / 121 40% 1 04.03.2027 -
Luis Fernando Santa Clara Ativo 99 / 104 40% 1 28.02.2027 -
Younes Ebnoutalib Eintracht Frankfurt Ativo 132 / 138 40% 1 25.02.2027 -
Borna Knezović Casarano Ativo 92 / 106 40% 1 25.02.2027 -
Shandre Campbell KV Kortrijk Ativo 103 / 111 40% 1 21.02.2027 -
Rok Zajc NK Domzale Ativo 104 / 125 40% 1 19.02.2027 -
Kauã Elias Shakhtar Ativo 120 / 122 40% 4 17.02.2027 -
Jean-Luc Morin Tours Ativo 151 / 136 40% 1 17.02.2027 -
Dramane Kamagaté USM Alger Ativo 114 / 103 40% 1 15.02.2027 -
Nəriman Axundzadə Columbus Crew Ativo 121 / 118 40% 1 08.02.2027 -
Ben Ahmed Kohili Paradou Ativo 96 / 103 40% 1 06.02.2027 -
Alexey Batrakov Galatasaray Ativo 134 / 147 40% 1 05.02.2027 -
Dor Turgeman New England Revolution Ativo 138 / 135 40% 1 04.02.2027 -
Armstrong Oko-Flex Levski Ativo 117 / 132 40% 1 04.02.2027 -
Nahuel Ulariaga Al Ahli Ativo 131 / 119 40% 1 03.02.2027 -
Nilson Angulo Sunderland Ativo 129 / 119 40% 1 03.02.2027 -
Mfundo Vilakazi Kaizer Chiefs Ativo 116 / 124 40% 1 24.01.2027 -
Riyad Idrissi Cagliari Ativo 118 / 122 40% 1 23.01.2027 -
Ichem Ferrah Pisa Ativo 106 / 125 40% 1 23.01.2027 -
Alexander Røssing-Lelesiit Hamburger SV Ativo 120 / 124 40% 1 17.01.2027 -
Alessio Cragno Südtirol Perdido 116 / 129 62% 1 07.01.2027 -
Akor Adams Venezia Perdido 146 / 139 62% 1 01.01.2027 -
Thiago Silvero River Plate Ativo 114 / 115 40% 1 30.12.2026 -
Samuele di Benedetto Charlton Athletic Ativo 115 / 113 40% 1 30.12.2026 -
Ignacio Perruzzi San Lorenzo Ativo 137 / 113 40% 2 29.12.2026 -
Igor Serrote Al Jazira Ativo 119 / 109 40% 2 29.12.2026 -
Alejandro Almaraz Nueva Chicago Ativo 98 / 109 40% 2 27.12.2026 -
Alex Tóth Bournemouth Ativo 126 / 130 40% 2 24.12.2026 -
Luca Barani Forli Ativo 77 / 90 40% 1 23.12.2026 -
Luís Gomes Porto Ativo 99 / 95 40% 1 23.12.2026 -
Gonçalo Oliveira Benfica Ativo 107 / 119 40% 1 19.12.2026 -
Charlie Waller Milton Keynes Dons Ativo 84 / 84 40% 1 19.12.2026 -
Ovidiu Hagi Astra Ativo 119 / 110 40% 2 16.12.2026 -
Jair Nottingham Forest Ativo 136 / 126 40% 2 15.12.2026 -
Santiago Sosa Yung Defensa y Justicia Ativo 113 / 125 40% 2 15.12.2026 -
João Muniz Sporting CP Ativo 114 / 114 40% 4 11.12.2026 -
Enzo Cardozo Almirante Brown Ativo 120 / 113 40% 2 10.12.2026 -
Santiago Daniele Chacarita Juniors Ativo 98 / 102 40% 1 07.12.2026 -
Maldini Kacurri Grimsby Town Ativo 91 / 88 40% 1 04.12.2026 -
Kevin Pinto Benfica Ativo 98 / 106 40% 1 02.12.2026 -
Obed Vargas Atlético Madrid Ativo 129 / 135 40% 1 26.11.2026 -
Simphiwe Selepe Orlando Pirates Ativo 110 / 119 40% 1 24.11.2026 -
Tomás Cruz Benfica Ativo 100 / 105 40% 1 24.11.2026 -
Kieran Chandler Minnesota United FC Ativo 75 / 101 40% 1 20.11.2026 -
Tommaso Cecotti Carpi Ativo 87 / 92 40% 1 20.11.2026 -
Kerr Smith Sevilla Ativo 94 / 100 40% 2 18.11.2026 -
Josen Escobar Atlético Madrid Ativo 124 / 118 40% 1 17.11.2026 -
Julián Bazán New York Red Bulls Ativo 115 / 118 40% 2 16.11.2026 -
Leandro Martins Benfica Ativo 96 / 90 40% 1 16.11.2026 -
Eyad El Askalany Rostov Ativo 101 / 89 40% 1 15.11.2026 -
Cemran Dansin Orlando Pirates Ativo 110 / 115 40% 1 12.11.2026 -
Rodrigo Arnay Güemes Ativo 91 / 109 40% 1 07.11.2026 -
Kai Andrews Coventry City Ativo 103 / 110 40% 1 06.11.2026 -
Federico Valentini Forli Ativo 97 / 96 40% 1 04.11.2026 -
Surprise Manthosi Polokwane City Ativo 91 / 97 40% 1 04.11.2026 -
Aiden Hezarkhani Real Salt Lake Ativo 92 / 104 40% 1 02.11.2026 -
Nahuel Herrera Penarol Ativo 109 / 135 40% 1 05.10.2026 -
Lorenzo Pellegrini AS Roma Ativo 148 / 132 62% 1 17.08.2026 Aprovar
Luciano Inverso Rentistas Ativo 120 / 114 40% 1 02.08.2026 -